Elrama, Pennsylvania
Current Conditions -  °F | °C
As of 4:33 AM on Thursday 27 Nov 2014 (Local Time) from KAGC Reporting Station
Haze Haze  
Wind Chill: 26°   Ceiling: 600
Heat Index: 32°   Visibility: 2.5mi
Dew Point: 28°   Wind: 6mph
Humidity: 85%   Direction: 230°SW
Pressure: 29.98"   Gusts: NA
Location:  40.25°N, 79.92°W
Report Text: KAGC 270933Z 23005KT 2 1/2SM BR BKN006 OVC050 00/M02 A2998 RMK AO2 T00001022
Loading
Personal Weather Stations






























Interactive Weather Map New forecast layout! Learn more

10-Day Weather Forecast

Advertisements
Track Severe Weather on mobile